createdAt,value
2022-08-14T00:02:24.454Z,5.60
2022-08-14T00:04:56.643Z,6.00
2022-08-14T00:07:24.839Z,5.82
2022-08-14T00:10:02.541Z,5.82
2022-08-14T00:12:48.216Z,5.90
2022-08-14T00:15:29.823Z,6.43
2022-08-14T00:18:06.764Z,5.55
2022-08-14T00:20:42.989Z,6.70
2022-08-14T00:23:16.888Z,6.55
2022-08-14T00:25:53.834Z,6.13
2022-08-14T00:28:35.636Z,6.45
2022-08-14T00:31:06.623Z,5.78
2022-08-14T00:33:49.237Z,6.18
2022-08-14T00:36:35.668Z,6.28
2022-08-14T00:39:09.248Z,6.45
2022-08-14T00:41:38.772Z,5.60
2022-08-14T00:44:08.184Z,5.93
2022-08-14T00:46:37.907Z,5.53
2022-08-14T00:49:11.512Z,5.95
2022-08-14T00:51:45.576Z,5.78
2022-08-14T00:54:21.662Z,6.18
2022-08-14T00:56:55.417Z,6.05
2022-08-14T00:59:25.725Z,6.00
2022-08-14T01:01:58.317Z,6.07
2022-08-14T01:04:38.064Z,6.30
2022-08-14T01:07:21.327Z,5.78
2022-08-14T01:09:51.479Z,5.90
2022-08-14T01:12:27.300Z,5.97
2022-08-14T01:14:59.428Z,6.57
2022-08-14T01:17:50.686Z,6.50
2022-08-14T01:20:39.458Z,6.80
2022-08-14T01:23:15.764Z,6.07
2022-08-14T01:25:46.029Z,5.85
2022-08-14T01:28:46.229Z,6.13
2022-08-14T01:31:05.959Z,5.50
2022-08-14T01:34:00.110Z,5.88
2022-08-14T01:36:23.798Z,6.60
2022-08-14T01:38:57.872Z,6.40
2022-08-14T01:41:29.982Z,6.35
2022-08-14T01:44:02.310Z,6.50
2022-08-14T01:46:36.672Z,6.57
2022-08-14T01:49:07.473Z,6.25
2022-08-14T01:51:37.243Z,6.15
2022-08-14T01:54:10.386Z,6.80
2022-08-14T01:56:44.539Z,6.78
2022-08-14T01:59:21.891Z,7.35
2022-08-14T02:01:58.509Z,6.68
2022-08-14T02:04:54.651Z,5.95
2022-08-14T02:07:34.728Z,6.30
2022-08-14T02:10:12.855Z,6.20
2022-08-14T02:12:43.906Z,7.50
2022-08-14T02:15:12.884Z,6.68
2022-08-14T02:17:44.035Z,6.13
2022-08-14T02:20:14.026Z,6.60
2022-08-14T02:22:47.649Z,6.60
2022-08-14T02:25:17.896Z,7.28
2022-08-14T02:28:25.582Z,6.70
2022-08-14T02:30:34.916Z,6.93
2022-08-14T02:33:07.551Z,6.30
2022-08-14T02:35:40.956Z,6.88
2022-08-14T02:38:11.412Z,7.03
2022-08-14T02:40:41.868Z,7.22
2022-08-14T02:43:13.817Z,6.30
2022-08-14T02:45:44.543Z,6.82
2022-08-14T02:49:03.907Z,6.72
2022-08-14T02:51:07.272Z,7.13
2022-08-14T02:53:39.798Z,7.25
2022-08-14T02:56:30.697Z,6.50
2022-08-14T02:59:05.442Z,6.70
2022-08-14T03:01:43.876Z,6.47
2022-08-14T03:04:20.704Z,6.43
2022-08-14T03:07:06.576Z,6.80
2022-08-14T03:09:42.025Z,6.85
2022-08-14T03:12:31.611Z,7.03
2022-08-14T03:15:02.992Z,6.47
2022-08-14T03:17:31.901Z,7.28
2022-08-14T03:20:11.978Z,7.55
2022-08-14T03:22:42.108Z,7.20
2022-08-14T03:25:12.212Z,7.05
2022-08-14T03:27:48.601Z,7.15
2022-08-14T03:30:39.338Z,7.35
2022-08-14T03:33:11.382Z,6.18
2022-08-14T03:35:59.905Z,6.65
2022-08-14T03:39:13.606Z,6.32
2022-08-14T03:41:23.225Z,6.45
2022-08-14T03:43:57.494Z,7.05
2022-08-14T03:46:55.046Z,7.03
2022-08-14T03:49:29.273Z,6.68
2022-08-14T03:52:00.726Z,6.43
2022-08-14T03:54:29.808Z,7.00
2022-08-14T03:57:02.855Z,7.18
2022-08-14T03:59:34.079Z,10.20
2022-08-14T04:02:33.376Z,9.68
2022-08-14T04:04:53.420Z,7.80
2022-08-14T04:07:22.522Z,7.57
2022-08-14T04:09:50.821Z,7.07
2022-08-14T04:12:26.392Z,6.53
2022-08-14T04:14:56.732Z,6.38
2022-08-14T04:17:26.250Z,6.53
2022-08-14T04:19:55.120Z,7.47
2022-08-14T04:22:25.248Z,6.60
2022-08-14T04:24:54.020Z,6.18
2022-08-14T04:27:23.308Z,6.47
2022-08-14T04:29:51.715Z,6.78
2022-08-14T04:32:57.569Z,6.55
2022-08-14T04:35:11.258Z,6.93
2022-08-14T04:37:56.923Z,6.93
2022-08-14T04:40:42.630Z,6.97
2022-08-14T04:43:38.509Z,7.10
2022-08-14T04:46:11.913Z,6.65
2022-08-14T04:49:00.497Z,7.07
2022-08-14T04:51:30.191Z,6.72
2022-08-14T04:54:16.596Z,6.70
2022-08-14T04:56:45.544Z,7.20
2022-08-14T04:59:13.706Z,7.32
2022-08-14T05:01:48.722Z,6.38
2022-08-14T05:04:22.992Z,7.55
2022-08-14T05:06:53.516Z,6.57
2022-08-14T05:09:23.361Z,6.40
2022-08-14T05:11:51.841Z,7.18
2022-08-14T05:14:45.268Z,6.72
2022-08-14T05:17:10.853Z,6.90
2022-08-14T05:19:44.204Z,6.78
2022-08-14T05:22:30.019Z,7.10
2022-08-14T05:24:58.677Z,7.05
2022-08-14T05:27:31.015Z,7.80
2022-08-14T05:30:01.279Z,7.68
2022-08-14T05:32:30.103Z,7.93
2022-08-14T05:35:00.928Z,7.32
2022-08-14T05:37:30.991Z,6.80
2022-08-14T05:40:01.065Z,7.45
2022-08-14T05:42:32.056Z,7.05
2022-08-14T05:45:17.195Z,6.88
2022-08-14T05:47:45.409Z,6.63
2022-08-14T05:50:20.660Z,6.75
2022-08-14T05:52:53.094Z,7.05
2022-08-14T05:55:23.287Z,7.15
2022-08-14T05:57:54.573Z,6.55
2022-08-14T06:00:29.875Z,6.55
2022-08-14T06:03:04.109Z,6.88
2022-08-14T06:05:38.732Z,7.60
2022-08-14T06:08:31.298Z,6.95
2022-08-14T06:11:07.105Z,7.47
2022-08-14T06:13:44.690Z,7.03
2022-08-14T06:16:13.074Z,7.18
2022-08-14T06:18:41.129Z,7.47
2022-08-14T06:21:13.637Z,6.93
2022-08-14T06:23:41.918Z,6.80
2022-08-14T06:26:11.176Z,6.78
2022-08-14T06:28:40.980Z,7.30
2022-08-14T06:31:13.643Z,7.47
2022-08-14T06:35:04.824Z,7.93
2022-08-14T06:36:31.894Z,6.50
2022-08-14T06:38:59.948Z,6.55
2022-08-14T06:41:56.711Z,7.07
2022-08-14T06:44:16.657Z,7.32
2022-08-14T06:46:49.147Z,7.13
2022-08-14T06:49:17.899Z,7.13
2022-08-14T06:51:49.985Z,7.20
2022-08-14T06:54:21.984Z,6.57
2022-08-14T06:56:59.213Z,6.60
2022-08-14T06:59:27.778Z,6.90
2022-08-14T07:02:17.946Z,7.07
2022-08-14T07:05:12.908Z,7.13
2022-08-14T07:07:50.887Z,7.10
2022-08-14T07:10:22.277Z,6.70
2022-08-14T07:13:01.919Z,7.25
2022-08-14T07:15:34.370Z,7.07
2022-08-14T07:18:09.693Z,6.43
2022-08-14T07:20:38.427Z,6.25
2022-08-14T07:23:19.896Z,6.28
2022-08-14T07:25:51.462Z,6.43
2022-08-14T07:28:23.532Z,6.80
2022-08-14T07:30:52.633Z,6.65
2022-08-14T07:33:29.325Z,6.35
2022-08-14T07:36:00.511Z,6.72
2022-08-14T07:38:36.265Z,7.80
2022-08-14T07:41:14.548Z,6.50
2022-08-14T07:43:47.453Z,7.05
2022-08-14T07:46:29.288Z,5.70
2022-08-14T07:48:59.237Z,5.55
2022-08-14T07:51:33.358Z,7.65
2022-08-14T07:54:11.183Z,12.15
2022-08-14T07:56:48.022Z,6.30
2022-08-14T07:59:40.960Z,5.65
2022-08-14T08:02:19.414Z,5.90
2022-08-14T08:04:54.135Z,6.10
2022-08-14T08:07:23.739Z,7.15
2022-08-14T08:09:57.934Z,6.40
2022-08-14T08:12:38.571Z,7.20
2022-08-14T08:15:08.070Z,6.20
2022-08-14T08:17:42.518Z,8.40
2022-08-14T08:20:27.486Z,6.32
2022-08-14T08:23:00.364Z,6.45
2022-08-14T08:25:34.050Z,7.03
2022-08-14T08:28:22.093Z,6.28
2022-08-14T08:30:56.289Z,8.38
2022-08-14T08:33:32.279Z,6.40
2022-08-14T08:36:08.185Z,6.32
2022-08-14T08:39:15.316Z,6.32
2022-08-14T08:41:41.107Z,6.20
2022-08-14T08:44:31.321Z,6.90
2022-08-14T08:47:05.415Z,6.18
2022-08-14T08:49:48.293Z,6.20
2022-08-14T08:52:25.348Z,6.13
2022-08-14T08:54:59.013Z,5.70
2022-08-14T08:57:29.413Z,6.13
2022-08-14T08:59:58.922Z,5.88
2022-08-14T09:02:27.877Z,6.00
2022-08-14T09:05:04.659Z,5.60
2022-08-14T09:07:32.892Z,5.60
2022-08-14T09:10:01.705Z,5.65
2022-08-14T09:12:35.637Z,5.35
2022-08-14T09:15:09.071Z,5.55
2022-08-14T09:17:41.588Z,5.35
2022-08-14T09:20:11.341Z,5.32
2022-08-14T09:22:42.657Z,5.00
2022-08-14T09:25:17.249Z,5.68
2022-08-14T09:27:49.633Z,5.40
2022-08-14T09:30:32.707Z,5.35
2022-08-14T09:33:22.888Z,4.80
2022-08-14T09:36:04.219Z,8.40
2022-08-14T09:38:44.410Z,5.28
2022-08-14T09:42:20.061Z,5.28
2022-08-14T09:44:33.851Z,5.03
2022-08-14T09:47:02.162Z,4.45
2022-08-14T09:49:40.746Z,3.90
2022-08-14T09:52:33.055Z,4.85
2022-08-14T09:54:59.816Z,4.15
2022-08-14T09:57:33.395Z,3.78
2022-08-14T10:00:27.198Z,4.13
2022-08-14T10:03:05.227Z,3.90
2022-08-14T10:05:39.045Z,4.00
2022-08-14T10:08:25.740Z,4.03
2022-08-14T10:11:02.513Z,3.80
2022-08-14T10:13:52.753Z,4.50
2022-08-14T10:16:27.165Z,4.68
2022-08-14T10:19:10.021Z,5.82
2022-08-14T10:21:58.457Z,4.10
2022-08-14T10:24:37.397Z,3.95
2022-08-14T10:27:06.558Z,3.83
2022-08-14T10:29:37.596Z,3.95
2022-08-14T10:32:17.964Z,3.85
2022-08-14T10:35:13.507Z,3.30
2022-08-14T10:37:49.965Z,3.30
2022-08-14T10:40:38.108Z,3.67
2022-08-14T10:43:18.942Z,3.72
2022-08-14T10:46:21.614Z,3.72
2022-08-14T10:49:04.034Z,3.85
2022-08-14T10:51:36.186Z,3.95
2022-08-14T10:54:17.114Z,3.80
2022-08-14T10:56:59.468Z,3.97
2022-08-14T10:59:30.737Z,3.80
2022-08-14T11:01:59.990Z,4.18
2022-08-14T11:04:30.507Z,4.60
2022-08-14T11:06:59.667Z,4.00
2022-08-14T11:09:32.188Z,4.15
2022-08-14T11:12:40.045Z,4.20
2022-08-14T11:14:59.206Z,3.83
2022-08-14T11:17:32.086Z,5.18
2022-08-14T11:20:04.701Z,4.45
2022-08-14T11:22:52.365Z,4.05
2022-08-14T11:25:24.860Z,5.55
2022-08-14T11:28:14.874Z,4.20
2022-08-14T11:30:53.671Z,3.80
2022-08-14T11:33:24.746Z,3.95
2022-08-14T11:35:59.615Z,3.42
2022-08-14T11:38:29.219Z,4.20
2022-08-14T11:41:00.319Z,4.00
2022-08-14T11:43:30.700Z,3.88
2022-08-14T11:46:03.968Z,4.40
2022-08-14T11:49:03.082Z,4.35
2022-08-14T11:51:30.312Z,4.57
2022-08-14T11:54:03.179Z,5.55
2022-08-14T11:56:36.878Z,4.45
2022-08-14T11:59:07.238Z,4.13
2022-08-14T12:01:41.450Z,4.97
2022-08-14T12:04:32.036Z,4.38
2022-08-14T12:07:03.553Z,4.40
2022-08-14T12:09:32.730Z,4.50
2022-08-14T12:12:01.440Z,4.70
2022-08-14T12:14:35.203Z,4.38
2022-08-14T12:17:12.331Z,4.22
2022-08-14T12:19:51.049Z,3.90
2022-08-14T12:22:34.781Z,4.38
2022-08-14T12:25:10.107Z,4.55
2022-08-14T12:27:46.809Z,4.40
2022-08-14T12:30:36.031Z,4.15
2022-08-14T12:33:08.793Z,3.80
2022-08-14T12:35:42.769Z,4.22
2022-08-14T12:38:19.588Z,3.95
2022-08-14T12:40:50.384Z,4.40
2022-08-14T12:43:21.491Z,4.00
2022-08-14T12:45:51.447Z,3.72
2022-08-14T12:48:31.586Z,3.90
2022-08-14T12:51:00.152Z,4.75
2022-08-14T12:53:41.060Z,4.20
2022-08-14T12:56:22.212Z,4.20
2022-08-14T12:59:00.407Z,5.15
2022-08-14T13:01:31.197Z,6.90
2022-08-14T13:04:10.115Z,4.80
2022-08-14T13:06:39.444Z,5.78
2022-08-14T13:09:11.675Z,4.25
2022-08-14T13:11:45.104Z,5.45
2022-08-14T13:14:17.521Z,4.18
2022-08-14T13:16:50.615Z,5.00
2022-08-14T13:19:19.984Z,3.90
2022-08-14T13:22:05.998Z,4.68
2022-08-14T13:24:40.908Z,4.75
2022-08-14T13:27:12.469Z,3.92
2022-08-14T13:29:46.629Z,3.53
2022-08-14T13:32:15.377Z,4.00
2022-08-14T13:34:45.925Z,4.18
2022-08-14T13:37:17.010Z,3.90
2022-08-14T13:39:53.745Z,4.05
2022-08-14T13:42:30.442Z,3.72
2022-08-14T13:45:00.399Z,4.07
2022-08-14T13:47:33.185Z,4.50
2022-08-14T13:50:05.986Z,3.92
2022-08-14T13:52:52.253Z,3.92
2022-08-14T13:55:25.947Z,3.80
2022-08-14T13:58:03.218Z,4.18
2022-08-14T14:00:35.443Z,3.90
2022-08-14T14:03:20.348Z,3.55
2022-08-14T14:05:54.293Z,3.30
2022-08-14T14:08:46.021Z,3.80
2022-08-14T14:11:16.237Z,3.67
2022-08-14T14:13:46.515Z,3.95
2022-08-14T14:16:22.072Z,3.78
2022-08-14T14:19:09.530Z,3.83
2022-08-14T14:21:40.840Z,3.50
2022-08-14T14:24:11.737Z,3.58
2022-08-14T14:26:47.712Z,3.67
2022-08-14T14:29:24.247Z,3.60
2022-08-14T14:31:55.250Z,3.55
2022-08-14T14:34:30.719Z,3.83
2022-08-14T14:37:03.120Z,3.40
2022-08-14T14:39:38.186Z,3.80
2022-08-14T14:42:32.030Z,3.55
2022-08-14T14:45:06.100Z,3.40
2022-08-14T14:47:35.372Z,3.50
2022-08-14T14:50:05.178Z,3.42
2022-08-14T14:52:37.188Z,3.38
2022-08-14T14:55:12.427Z,3.50
2022-08-14T14:57:43.156Z,3.10
2022-08-14T15:00:19.314Z,3.30
2022-08-14T15:02:49.909Z,4.22
2022-08-14T15:05:20.616Z,3.33
2022-08-14T15:07:51.553Z,2.95
2022-08-14T15:10:28.241Z,3.10
2022-08-14T15:13:04.150Z,3.42
2022-08-14T15:15:33.352Z,3.20
2022-08-14T15:18:36.974Z,2.97
2022-08-14T15:20:57.527Z,3.28
2022-08-14T15:23:43.660Z,3.38
2022-08-14T15:26:23.403Z,3.53
2022-08-14T15:29:04.709Z,3.70
2022-08-14T15:31:36.038Z,3.63
2022-08-14T15:34:43.851Z,3.75
2022-08-14T15:37:04.794Z,3.40
2022-08-14T15:39:36.014Z,4.05
2022-08-14T15:42:14.601Z,3.25
2022-08-14T15:44:58.301Z,3.92
2022-08-14T15:47:31.224Z,4.80
2022-08-14T15:50:00.204Z,3.13
2022-08-14T15:52:34.475Z,2.88
2022-08-14T15:55:05.112Z,3.00
2022-08-14T15:57:34.133Z,3.33
2022-08-14T16:00:43.958Z,3.00
2022-08-14T16:03:14.295Z,3.00
2022-08-14T16:05:45.990Z,2.85
2022-08-14T16:08:27.480Z,3.20
2022-08-14T16:10:58.878Z,3.17
2022-08-14T16:13:39.740Z,3.08
2022-08-14T16:16:50.825Z,2.80
2022-08-14T16:19:07.248Z,3.42
2022-08-14T16:21:40.492Z,2.90
2022-08-14T16:24:27.616Z,3.05
2022-08-14T16:27:00.399Z,3.42
2022-08-14T16:29:30.109Z,3.25
2022-08-14T16:32:01.708Z,2.90
2022-08-14T16:34:54.738Z,3.15
2022-08-14T16:37:31.123Z,3.10
2022-08-14T16:40:04.122Z,3.13
2022-08-14T16:42:38.747Z,2.80
2022-08-14T16:45:25.940Z,3.50
2022-08-14T16:47:56.000Z,3.33
2022-08-14T16:50:40.130Z,4.32
2022-08-14T16:53:12.782Z,3.65
2022-08-14T16:55:53.205Z,3.60
2022-08-14T16:58:29.713Z,3.72
2022-08-14T17:01:24.947Z,4.20
2022-08-14T17:04:03.563Z,4.07
2022-08-14T17:06:43.023Z,3.95
2022-08-14T17:09:34.635Z,3.53
2022-08-14T17:12:07.603Z,4.15
2022-08-14T17:14:56.529Z,3.78
2022-08-14T17:17:28.677Z,4.47
2022-08-14T17:20:08.560Z,4.30
2022-08-14T17:22:53.188Z,4.68
2022-08-14T17:25:26.215Z,4.95
2022-08-14T17:28:52.718Z,4.47
2022-08-14T17:31:02.579Z,4.70
2022-08-14T17:33:33.817Z,4.70
2022-08-14T17:36:20.771Z,4.82
2022-08-14T17:39:06.306Z,4.22
2022-08-14T17:41:38.754Z,4.82
2022-08-14T17:44:33.799Z,4.50
2022-08-14T17:47:11.160Z,4.82
2022-08-14T17:49:52.169Z,4.20
2022-08-14T17:52:34.444Z,5.00
2022-08-14T17:55:09.880Z,5.15
2022-08-14T17:57:42.280Z,5.07
2022-08-14T18:00:14.679Z,5.30
2022-08-14T18:02:51.358Z,4.78
2022-08-14T18:05:23.253Z,6.10
2022-08-14T18:08:33.556Z,5.82
2022-08-14T18:11:02.530Z,5.57
2022-08-14T18:13:51.594Z,5.10
2022-08-14T18:16:22.745Z,4.72
2022-08-14T18:18:51.899Z,4.70
2022-08-14T18:21:23.943Z,4.95
2022-08-14T18:24:20.085Z,5.18
2022-08-14T18:27:01.765Z,6.60
2022-08-14T18:29:32.830Z,4.72
2022-08-14T18:32:01.675Z,4.88
2022-08-14T18:34:38.111Z,5.10
2022-08-14T18:37:21.980Z,5.15
2022-08-14T18:40:03.265Z,5.45
2022-08-14T18:42:45.485Z,5.05
2022-08-14T18:45:18.614Z,5.63
2022-08-14T18:48:14.263Z,5.00
2022-08-14T18:50:52.320Z,5.10
2022-08-14T18:53:24.810Z,4.95
2022-08-14T18:56:01.919Z,4.78
2022-08-14T18:58:46.281Z,5.00
2022-08-14T19:01:24.692Z,6.53
2022-08-14T19:03:57.695Z,4.80
2022-08-14T19:06:55.735Z,4.80
2022-08-14T19:09:58.074Z,4.50
2022-08-14T19:13:05.441Z,5.60
2022-08-14T19:15:44.033Z,4.97
2022-08-14T19:18:26.445Z,5.35
2022-08-14T19:20:59.044Z,5.60
2022-08-14T19:23:40.719Z,4.47
2022-08-14T19:26:33.786Z,4.95
2022-08-14T19:32:02.926Z,5.25
2022-08-14T19:34:37.609Z,5.07
2022-08-14T19:37:08.850Z,5.55
2022-08-14T19:39:53.723Z,5.90
2022-08-14T19:42:28.417Z,5.32
2022-08-14T19:44:59.152Z,5.93
2022-08-14T19:47:38.751Z,5.50
2022-08-14T19:50:38.191Z,5.65
2022-08-14T19:53:11.327Z,5.28
2022-08-14T19:55:45.694Z,11.95
2022-08-14T19:58:14.612Z,10.95
2022-08-14T20:00:52.148Z,7.32
2022-08-14T20:03:23.279Z,7.20
2022-08-14T20:06:03.306Z,6.60
2022-08-14T20:10:59.043Z,7.47
2022-08-14T20:12:00.309Z,8.25
2022-08-14T20:14:20.741Z,9.98
2022-08-14T20:17:03.292Z,10.57
2022-08-14T20:19:37.582Z,12.18
2022-08-14T20:22:36.769Z,10.25
2022-08-14T20:25:13.928Z,9.68
2022-08-14T20:27:44.661Z,9.95
2022-08-14T20:30:29.883Z,8.43
2022-08-14T20:33:07.291Z,7.63
2022-08-14T20:35:42.765Z,7.82
2022-08-14T20:38:31.159Z,7.90
2022-08-14T20:41:06.346Z,6.80
2022-08-14T20:43:54.884Z,6.75
2022-08-14T20:46:29.470Z,6.65
2022-08-14T20:49:00.642Z,6.60
2022-08-14T20:51:37.283Z,6.45
2022-08-14T20:54:07.433Z,6.97
2022-08-14T20:56:38.015Z,6.22
2022-08-14T20:59:18.036Z,6.13
2022-08-14T21:01:51.657Z,6.75
2022-08-14T21:04:27.825Z,6.85
2022-08-14T21:07:24.965Z,6.93
2022-08-14T21:10:06.414Z,5.90
2022-08-14T21:12:39.186Z,5.93
2022-08-14T21:15:27.421Z,5.78
2022-08-14T21:18:01.833Z,7.13
2022-08-14T21:20:29.961Z,6.47
2022-08-14T21:23:00.567Z,5.90
2022-08-14T21:25:31.712Z,6.40
2022-08-14T21:28:04.178Z,6.45
2022-08-14T21:30:46.377Z,6.70
2022-08-14T21:33:20.587Z,6.88
2022-08-14T21:35:55.610Z,6.50
2022-08-14T21:38:33.764Z,6.13
2022-08-14T21:41:35.288Z,5.95
2022-08-14T21:44:01.685Z,7.40
2022-08-14T21:46:31.008Z,7.03
2022-08-14T21:49:00.547Z,7.10
2022-08-14T21:51:53.610Z,6.32
2022-08-14T21:54:30.207Z,6.45
2022-08-14T21:57:02.264Z,6.60
2022-08-14T21:59:34.148Z,5.90
2022-08-14T22:02:05.892Z,6.80
2022-08-14T22:04:40.605Z,7.43
2022-08-14T22:07:12.616Z,7.75
2022-08-14T22:09:45.401Z,6.25
2022-08-14T22:12:57.854Z,6.32
2022-08-14T22:15:15.867Z,6.63
2022-08-14T22:17:44.847Z,6.75
2022-08-14T22:20:22.881Z,5.72
2022-08-14T22:22:56.480Z,7.10
2022-08-14T22:25:33.290Z,7.22
2022-08-14T22:28:04.304Z,6.57
2022-08-14T22:30:33.571Z,6.35
2022-08-14T22:33:02.469Z,6.60
2022-08-14T22:35:32.644Z,7.22
2022-08-14T22:38:35.433Z,6.63
2022-08-14T22:41:20.796Z,7.18
2022-08-14T22:43:40.616Z,7.05
2022-08-14T22:46:14.848Z,6.35
2022-08-14T22:48:49.276Z,7.38
2022-08-14T22:51:23.061Z,6.60
2022-08-14T22:53:53.423Z,6.90
2022-08-14T22:56:29.483Z,6.53
2022-08-14T22:59:00.520Z,6.75
2022-08-14T23:01:56.204Z,7.50
2022-08-14T23:04:34.769Z,6.95
2022-08-14T23:07:22.295Z,7.10
2022-08-14T23:09:56.189Z,7.35
2022-08-14T23:12:28.494Z,7.63
2022-08-14T23:14:58.469Z,7.10
2022-08-14T23:17:27.701Z,6.57
2022-08-14T23:20:18.774Z,6.97
2022-08-14T23:22:51.915Z,6.80
2022-08-14T23:25:45.821Z,7.15
2022-08-14T23:28:34.157Z,7.25
2022-08-14T23:31:01.220Z,6.68
2022-08-14T23:33:29.837Z,7.32
2022-08-14T23:36:00.028Z,7.32
2022-08-14T23:38:31.376Z,6.78
2022-08-14T23:41:02.306Z,7.57
2022-08-14T23:43:31.683Z,7.07
2022-08-14T23:46:00.439Z,7.63
2022-08-14T23:48:29.393Z,6.35
2022-08-14T23:50:59.099Z,7.38
2022-08-14T23:53:48.134Z,6.95
2022-08-14T23:56:32.018Z,7.68
2022-08-14T23:59:01.370Z,7.93
